Laurence M. Gould — WCX7445 — position and weather

sailwx.info

Track history (hours):
 
Tides and Currents Weather Stations Pressure Air Temp Water Temp Dewpoint Dewpoint Depression Visibility Wind Speed Wind Dir Waves Ship Positions

Oceanographic research ship Laurence M. Gould (USA)

Detailed information on ship capabilities available from University of Delaware's Ocean Information Center.

Owner: Offshore Service Vessels LLC, Cut Off, LA. More information available from US FCC via Universal Licensing System and Coast Guard Vessel Documentation Center.

Last reported at 2019-Apr-26 11:00 UTC. Time now 2019-Apr-26 12:05 UTC.
Position S 66°12' W 066°30'.

Type: Ship. MMSI: 368138000.

Wind from 050 at 30 knots

Barometer 983.2 mb
Air temperature 0.1 ° C
Dewpoint -0.2 ° C
Water temperature -0.1 ° C

Date/timePositionNaut miles runAvg speedWind from/ knotsBaromVisibWave heightAir tempDewpointWater temp
2019-Apr-26 11:00S 66°12' W 066°30'6 6.5 050 / 30983.2 0.1-0.2-0.1
2019-Apr-26 10:00S 66°06' W 066°24'8 7.7 040 / 32984.7 -0.0-0.3-0.1
2019-Apr-26 09:00S 66°00' W 066°12'5 4.9 040 / 31986.5 -0.1-0.6-0.2
2019-Apr-26 08:00S 66°00' W 066°00'7 7.3 050 / 25988.8 -0.2-0.6-0.9
2019-Apr-26 07:00S 66°00' W 065°42'5 4.9 050 / 25991.2 -0.0-0.5-1.2
2019-Apr-26 06:00S 66°00' W 065°30'6 6.5 050 / 25992.7 -0.0-0.5-1.3
2019-Apr-26 05:00S 65°54' W 065°24'5 4.9 070 / 19994.7 -0.2-0.9-1.2
2019-Apr-26 04:00S 65°54' W 065°12'6 6.5 080 / 17996.2 -0.2-1.0-1.2
2019-Apr-26 03:00S 65°48' W 065°06'8 7.8 090 / 13997.8 -0.4-1.4-1.1
2019-Apr-26 02:00S 65°42' W 064°54'1313.0 080 / 15998.8 -0.4-1.5-1.5
2019-Apr-26 01:00S 65°30' W 064°42'8 7.8 090 / 131000.1 -0.4-1.6-1.1
2019-Apr-26 00:00S 65°24' W 064°30'1414.2 040 / 121001.2 -0.1-1.3-1.2
2019-Apr-25 23:00S 65°12' W 064°12'7 6.5 030 / 151001.9 -0.2-1.0-1.1
2019-Apr-25 22:00S 65°06' W 064°18'1211.8 020 / 151002.0 -0.0-0.6 0.1
2019-Apr-25 21:00S 65°00' W 064°42'7 6.5 030 / 141002.5 -0.0-0.7-0.2
2019-Apr-25 20:00S 64°54' W 064°36'8 7.6 010 / 121003.0 0.5-0.7 0.2
2019-Apr-25 19:00S 64°54' W 064°18'10 9.7 340 / 111002.8 0.8-0.9 0.2
2019-Apr-25 18:00S 64°48' W 064°00'0 0.0 330 / 111002.3 1.4-0.8 0.3
2019-Apr-25 17:00S 64°48' W 064°00'0 0.0 310 / 191000.8 1.2-1.1 0.3
2019-Apr-25 16:00S 64°48' W 064°00'0 0.0 300 / 20999.8 1.2-1.1 0.3
2019-Apr-25 15:00S 64°48' W 064°00'6 6.0 300 / 23999.1 1.4-0.8 0.3
2019-Apr-25 14:00S 64°42' W 064°00'0 0.0 310 / 16998.6 1.7-0.9-0.0
2019-Apr-25 13:00S 64°42' W 064°00'0 0.0 300 / 18997.2 2.7-0.7-0.0
2019-Apr-25 12:00S 64°42' W 064°00'0 0.0 300 / 20995.6 2.4-0.7-0.0
2019-Apr-25 11:00S 64°42' W 064°00'6 6.0 290 / 26993.8 2.6-0.5 0.2
2019-Apr-25 10:00S 64°48' W 064°00'3 2.6 300 / 27992.9 3.3-0.0 0.2
2019-Apr-25 09:00S 64°48' W 063°54'8 7.7 290 / 25992.1 1.0-0.5 0.2
2019-Apr-25 08:00S 64°48' W 064°12'10 9.7 290 / 25991.0 1.1-0.4 0.2
2019-Apr-25 07:00S 64°54' W 064°30'10 9.7 290 / 21990.5 1.2-0.4 0.2
2019-Apr-25 06:00S 65°00' W 064°48'1211.8 300 / 21989.2 1.0-0.5-0.1
2019-Apr-25 05:00S 65°06' W 065°12'10 9.7 300 / 20988.1 0.9-0.4 0.3
2019-Apr-25 04:00S 65°12' W 065°30'10 9.6 290 / 21987.1 1.1-0.4 0.3
2019-Apr-25 03:00S 65°18' W 065°48'1211.7 300 / 21986.4 1.0-0.2 0.2
2019-Apr-25 02:00S 65°24' W 066°12'10 9.6 310 / 18985.8 0.9-0.2-0.0
2019-Apr-25 01:00S 65°30' W 066°30'1212.0 300 / 20984.9 0.6-0.4-0.3
2019-Apr-25 00:00S 65°42' W 066°30'6 6.0 300 / 19984.4 0.5-0.4-0.2
2019-Apr-24 23:00S 65°48' W 066°30'1212.2 290 / 18983.8 0.6-0.2-0.0
2019-Apr-24 22:00S 66°00' W 066°24'1212.0 280 / 19982.8 0.3-0.2-0.1
2019-Apr-24 21:00S 66°12' W 066°24'9 9.4 310 / 14981.3 -0.1-0.6-0.2
2019-Apr-24 20:00S 66°18' W 066°42'9 9.4 320 / 16979.5 -0.4-0.9-0.8
2019-Apr-24 19:00S 66°24' W 067°00'1312.9 340 / 17978.3 -0.3-0.8-1.1
2019-Apr-24 18:00S 66°36' W 067°12'8 7.7 020 / 17977.9 0.3-0.3-1.3
2019-Apr-24 17:00S 66°42' W 067°24'5 4.7 050 / 22977.9 0.4-0.1-1.2
2019-Apr-24 16:00S 66°42' W 067°36'6 6.0 050 / 35977.6 0.3-0.4-1.3
2019-Apr-24 15:00S 66°48' W 067°36'6 6.0 030 / 33978.5 1.5 0.9-1.4
2019-Apr-24 14:00S 66°54' W 067°36'6 6.0 030 / 29979.5 1.0 0.6-1.4
2019-Apr-24 13:00S 66°48' W 067°36'0 0.0 040 / 38979.7 0.5 0.1-1.4
2019-Apr-24 12:00S 66°48' W 067°36'6 6.5 050 / 28981.7 -0.1-0.5-1.3
2019-Apr-24 11:00S 66°42' W 067°30'6 6.5 060 / 27983.4 -0.2-0.5-1.1
2019-Apr-24 10:00S 66°36' W 067°24'5 4.8 050 / 26984.3 -0.3-0.6-1.3
2019-Apr-24 09:00S 66°36' W 067°12'8 7.7 050 / 22985.3 -0.3-0.6-1.2
2019-Apr-24 08:00S 66°30' W 067°24'2 2.4 050 / 17986.1 -0.1-0.5-1.0
2019-Apr-24 07:00S 66°30' W 067°30'2 2.4 030 / 20986.5 -0.1-0.5-1.1
2019-Apr-24 06:00S 66°30' W 067°36'2 2.4 040 / 20987.0 -0.2-0.6-1.3
2019-Apr-24 05:00S 66°30' W 067°42'6 6.5 040 / 20987.5 -0.2-0.6-1.1
2019-Apr-24 04:00S 66°24' W 067°48'6 6.5 040 / 19988.1 -0.2-0.6-1.0
2019-Apr-24 03:00S 66°18' W 067°42'9 9.4 030 / 20988.9 -0.1-0.6-0.9
2019-Apr-24 02:00S 66°12' W 067°24'9 9.4 020 / 22989.7 -0.0-0.5-0.6
2019-Apr-24 01:00S 66°06' W 067°06'9 9.5 030 / 23990.6 0.1-0.3-0.2
2019-Apr-24 00:00S 66°00' W 066°48'7 7.3 030 / 22991.6 0.2-0.3-0.0
2019-Apr-23 23:00S 66°00' W 066°30'7 7.3 040 / 19992.5 -0.3-0.9-0.0
2019-Apr-23 22:00S 66°00' W 066°12'9 9.5 050 / 25993.6 -0.8-1.6-0.6
2019-Apr-23 21:00S 65°54' W 065°54'0 0.0 050 / 26993.9 0.1-1.1-0.7
2019-Apr-23 20:00S 65°54' W 065°54'0 0.0 050 / 25994.1 0.2-1.1-0.7
2019-Apr-23 19:00S 65°54' W 065°54'0 0.0 050 / 24994.3 0.3-0.8-0.7
2019-Apr-23 18:00S 65°54' W 065°54'0 0.0 050 / 21995.0 -0.3-1.2-0.7
2019-Apr-23 17:00S 65°54' W 065°54'6 6.5 040 / 21995.4 0.1-0.8-0.8
2019-Apr-23 16:00S 66°00' W 066°00'8 7.7 040 / 18995.6 -0.1-0.8-0.6
2019-Apr-23 15:00S 65°54' W 066°12'2 2.4 050 / 11996.1 -0.3-0.9-0.3
2019-Apr-23 14:00S 65°54' W 066°06'0 0.0 030 / 5996.3 -0.4-0.9-0.3
2019-Apr-23 13:00S 65°54' W 066°06'0 0.0 040 / 6996.3 -0.6-1.1-0.3
2019-Apr-23 12:00S 65°54' W 066°06'2 2.4 010 / 5996.4 -0.7-1.1-0.3
2019-Apr-23 11:00S 65°54' W 066°12'6 6.5 340 / 7996.2 -0.4-0.8-0.3
2019-Apr-23 10:00S 66°00' W 066°18'2 2.4 350 / 8996.0 -0.0-0.4-0.0
2019-Apr-23 09:00S 66°00' W 066°24'6 6.0 320 / 5995.8 -0.0-0.4-0.1
2019-Apr-23 08:00S 65°54' W 066°24'6 6.5 300 / 6995.4 -0.1-0.5-0.1
2019-Apr-23 07:00S 65°48' W 066°30'6 6.0 330 / 8994.8 -0.0-0.5-0.0
2019-Apr-23 06:00S 65°42' W 066°30'6 6.0 010 / 12994.0 -0.0-0.5-0.2
2019-Apr-23 05:00S 65°36' W 066°30'6 6.0 020 / 15993.7 -0.0-0.6-0.4
2019-Apr-23 04:00S 65°30' W 066°30'1211.6 030 / 18993.7 -0.1-0.7-0.4
2019-Apr-23 03:00S 65°24' W 066°06'10 9.6 030 / 21994.0 -0.0-0.7 0.1
2019-Apr-23 02:00S 65°18' W 065°48'1211.7 030 / 22994.4 -0.0-0.8 0.3
2019-Apr-23 01:00S 65°12' W 065°24'10 9.7 030 / 21995.0 -0.0-1.1 0.3
2019-Apr-23 00:00S 65°06' W 065°06'1211.8 050 / 16995.5 -0.0-2.4 0.4
2019-Apr-22 23:00S 65°00' W 064°42'1211.8 070 / 15996.1 -0.0-4.1 0.2
2019-Apr-22 22:00S 64°54' W 064°18'10 9.7 110 / 14996.1 -0.0-3.3 0.2
2019-Apr-22 21:00S 64°48' W 064°00'6 6.0 130 / 2996.4 0.3-3.2 0.3
2019-Apr-22 20:00S 64°42' W 064°00'0 0.0 130 / 4996.4 -0.1-3.7
2019-Apr-22 19:00S 64°42' W 064°00'0 0.0 150 / 3996.7 -0.1-2.7
2019-Apr-22 18:00S 64°42' W 064°00'0 0.0 130 / 4996.7 -0.6-3.7
2019-Apr-22 17:00S 64°42' W 064°00'0 0.0 150 / 4996.8 -0.7-3.2
2019-Apr-22 16:00S 64°42' W 064°00'0 0.0 170 / 2997.2 0.1-2.8
2019-Apr-22 15:00S 64°42' W 064°00'0 0.0 180 / 2997.5 -0.7-5.4
2019-Apr-22 14:00S 64°42' W 064°00'0 0.0 120 / 5997.9 -1.1-5.5
2019-Apr-22 13:00S 64°42' W 064°00'0 0.0 120 / 3998.6 -0.8-7.4
2019-Apr-22 12:00S 64°42' W 064°00'0 0.0 320 / 2999.2 -1.5-6.4
2019-Apr-22 11:00S 64°42' W 064°00'0 0.0 330 / 4999.4 -1.7-6.5
2019-Apr-22 10:00S 64°42' W 064°00'0 0.0 120 / 5999.7 -2.4-7.6
2019-Apr-22 09:00S 64°42' W 064°00'0 0.0 110 / 41000.2 -3.0-7.5
2019-Apr-22 08:00S 64°42' W 064°00'0 0.0 110 / 41000.5 -3.5-7.7
2019-Apr-22 07:00S 64°42' W 064°00'0 0.0 110 / 61001.0 -4.2-7.6
2019-Apr-22 06:00S 64°42' W 064°00'0 0.0 110 / 31001.4 -4.0-8.0
2019-Apr-22 05:00S 64°42' W 064°00'0 0.0 120 / 31001.7 -4.4-8.3
2019-Apr-22 04:00S 64°42' W 064°00'0 0.0 080 / 21001.8 -5.0-9.4
2019-Apr-22 03:00S 64°42' W 064°00'0 0.0 040 / 31002.1 -5.3-8.9
2019-Apr-22 02:00S 64°42' W 064°00'0 0.0 050 / 51002.1 -5.8-8.3
2019-Apr-22 01:00S 64°42' W 064°00'0 0.0 030 / 51002.0 -5.4-8.3
2019-Apr-22 00:00S 64°42' W 064°00'0 0.0 030 / 41002.2 -4.8-8.2
2019-Apr-21 23:00S 64°42' W 064°00'0 0.0 040 / 31002.2 -4.6-8.2
2019-Apr-21 22:00S 64°42' W 064°00'0 0.0 020 / 31002.0 -4.3-8.3
2019-Apr-21 21:00S 64°42' W 064°00'0 0.0 360 / 11002.1 -3.7-8.1
2019-Apr-21 20:00S 64°42' W 064°00'0 0.0 300 / 31002.1 -3.2-8.3
2019-Apr-21 19:00S 64°42' W 064°00'0 0.0 240 / 51001.9 -3.3-8.0
2019-Apr-21 18:00S 64°42' W 064°00'0 0.0 240 / 21001.6 -3.2-8.3
2019-Apr-21 17:00S 64°42' W 064°00'0 0.0 190 / 21001.2 -3.6-8.5
2019-Apr-21 16:00S 64°42' W 064°00'0 0.0 340 / 21001.0 -3.5-8.3
2019-Apr-21 15:00S 64°42' W 064°00'0 0.0 190 / 31000.6 -3.7-8.5
2019-Apr-21 14:00S 64°42' W 064°00'0 0.0 200 / 41000.2 -3.5-8.5
2019-Apr-21 13:00S 64°42' W 064°00'0 0.0 220 / 5999.9 -3.1-8.3
2019-Apr-21 12:00S 64°42' W 064°00'6 6.0 210 / 6999.2 -3.7-8.1 0.2
2019-Apr-21 11:00S 64°48' W 064°00'0 0.0 210 / 7998.8 -4.1-8.5 0.1
2019-Apr-21 10:00S 64°48' W 064°00'3 2.6 220 / 10998.2 -4.0-8.5 0.1
2019-Apr-21 09:00S 64°48' W 063°54'0 0.0 220 / 8997.8 -4.0-8.7-0.0
2019-Apr-21 08:00S 64°48' W 063°54'0 0.0 210 / 10997.3 -3.9-8.5 0.1
2019-Apr-21 07:00S 64°48' W 063°54'3 2.6 240 / 11996.8 -3.5-8.1-0.0
2019-Apr-21 06:00S 64°48' W 063°48'0 0.0 240 / 10996.3 -3.5-8.4 0.1
2019-Apr-21 05:00S 64°48' W 063°48'3 2.6 240 / 9995.8 -3.5-8.4-0.0
2019-Apr-21 04:00S 64°48' W 063°42'3 2.6 240 / 10995.4 -3.1-8.6-0.0
2019-Apr-21 03:00S 64°48' W 063°36'0 0.0 250 / 14995.0 -2.8-8.2 0.1
2019-Apr-21 02:00S 64°48' W 063°36'3 2.6 270 / 14994.5 -2.9-8.4 0.1
2019-Apr-21 01:00S 64°48' W 063°30'6 6.0 250 / 15994.1 -2.1-7.9 0.2
2019-Apr-21 00:00S 64°42' W 063°30'3 2.6 240 / 15993.7 -2.3-8.0 0.1
2019-Apr-20 23:00S 64°42' W 063°24'3 2.6 250 / 15993.1 -2.3-8.1-0.0
2019-Apr-20 22:00S 64°42' W 063°18'3 2.6 250 / 17992.2 -2.3-7.8-0.0
2019-Apr-20 21:00S 64°42' W 063°12'3 2.6 240 / 21991.0 -2.3-8.0-0.1
2019-Apr-20 20:00S 64°42' W 063°06'7 6.5 220 / 15991.0 -2.1-7.5-0.3
2019-Apr-20 19:00S 64°36' W 063°00'3 2.6 270 / 6990.8 -2.7-6.4-0.2
2019-Apr-20 18:00S 64°36' W 062°54'3 2.6 260 / 6990.2 -2.2-7.0-0.2
2019-Apr-20 17:00S 64°36' W 062°48'0 0.0 210 / 5990.1 -2.6-8.0-0.2
2019-Apr-20 16:00S 64°36' W 062°48'7 6.5 210 / 7989.6 -2.6-7.5-0.5
2019-Apr-20 15:00S 64°30' W 062°42'3 2.6 160 / 5989.4 -2.8-7.5-0.5
2019-Apr-20 14:00S 64°30' W 062°36'3 2.6 040 / 3989.1 -3.3-7.0-0.3
2019-Apr-20 13:00S 64°30' W 062°30'5 5.2 110 / 3988.7 -3.4-6.8-0.7
2019-Apr-20 12:00S 64°30' W 062°18'0 0.0 150 / 5988.2 -3.6-6.6-0.6
2019-Apr-20 11:00S 64°30' W 062°18'0 0.0 140 / 4987.8 -3.8-6.9-0.6
2019-Apr-20 10:00S 64°30' W 062°18'3 2.6 150 / 5987.1 -3.4-6.9-0.9
2019-Apr-20 09:00S 64°30' W 062°12'0 0.0 160 / 5986.4 -2.8-7.0-0.8
2019-Apr-20 08:00S 64°30' W 062°12'3 2.6 120 / 6985.5 -3.1-6.8-0.6
2019-Apr-20 07:00S 64°30' W 062°18'3 2.6 140 / 9984.7 -4.2-7.4-0.6
2019-Apr-20 06:00S 64°30' W 062°12'0 0.0 150 / 10984.0 -4.3-7.6-0.9
2019-Apr-20 05:00S 64°30' W 062°12'7 6.5 140 / 7983.3 -4.4-7.4-1.0
2019-Apr-20 04:00S 64°36' W 062°06'0 0.0 130 / 5982.4 -4.4-7.6-0.9
2019-Apr-20 03:00S 64°36' W 062°06'0 0.0 140 / 4981.6 -4.3-7.1-0.9
2019-Apr-20 02:00S 64°36' W 062°06'3 2.6 130 / 3980.8 -4.3-7.6-1.1
2019-Apr-20 01:00S 64°36' W 062°12'6 6.0 170 / 1980.6 -3.3-6.9-0.9
2019-Apr-20 00:00S 64°30' W 062°12'3 2.6 170 / 3980.2 -3.2-6.0-0.6
2019-Apr-19 23:00S 64°30' W 062°18'3 2.6 150 / 6979.8 -4.0-6.0-0.5
2019-Apr-19 22:00S 64°30' W 062°24'3 2.6 150 / 5979.9 -4.3-6.1-0.6
2019-Apr-19 21:00S 64°30' W 062°18'0 0.0 090 / 6979.9 -3.8-5.9-0.6
2019-Apr-19 20:00S 64°30' W 062°18'0 0.0 070 / 11979.7 -3.6-7.4-0.5
2019-Apr-19 19:00S 64°30' W 062°18'6 6.0 060 / 9980.1 -3.6-8.5-0.5
2019-Apr-19 18:00S 64°24' W 062°18'3 2.6 060 / 7981.1 -3.5-9.2-0.5
2019-Apr-19 17:00S 64°24' W 062°12'0 0.0 100 / 5982.6 -3.1-9.2-0.8
2019-Apr-19 16:00S 64°24' W 062°12'3 2.6 180 / 7983.7 -2.8-9.0-0.8
2019-Apr-19 15:00S 64°24' W 062°06'7 6.5 250 / 8983.8 -2.0-8.3-0.6
2019-Apr-19 14:00S 64°18' W 062°00'7 6.5 250 / 9984.3 -2.1-7.9-0.5
2019-Apr-19 13:00S 64°12' W 061°54'5 5.2 240 / 15984.3 -2.0-7.7-0.5
2019-Apr-19 12:00S 64°12' W 061°42'0 0.0 220 / 16984.8 -2.5-8.1-0.5
2019-Apr-19 11:00S 64°12' W 061°42'8 8.0 210 / 12984.7 -2.5-8.3-0.7
2019-Apr-19 10:00S 64°06' W 061°54'10 9.9 210 / 9984.3 -2.3-8.2-0.7
2019-Apr-19 09:00S 64°00' W 061°36'0 0.0 200 / 9984.1 -2.4-7.9-0.4
2019-Apr-19 08:00S 64°00' W 061°36'0 0.0 160 / 10984.0 -2.5-7.9-0.4
2019-Apr-19 07:00S 64°00' W 061°36'0 0.0 190 / 8983.8 -1.8-8.0-0.4
2019-Apr-19 06:00S 64°00' W 061°36'3 2.6 190 / 5983.2 -2.0-8.0-0.4
2019-Apr-19 05:00S 64°00' W 061°42'0 0.0 220 / 3982.8 -1.7-7.9-0.4
2019-Apr-19 04:00S 64°00' W 061°42'8 8.0 050 / 5982.5 -1.6-7.9-0.5
2019-Apr-19 03:00S 63°54' W 061°30'7 6.6 050 / 7982.0 -2.2-7.8-0.5
2019-Apr-19 02:00S 63°48' W 061°36'3 2.6 330 / 5982.0 -1.6-8.0-0.5
2019-Apr-19 01:00S 63°48' W 061°30'7 6.6 320 / 6982.0 -1.7-8.4-0.4
2019-Apr-19 00:00S 63°42' W 061°24'1212.0 220 / 8981.8 -1.2-7.3-0.0
2019-Apr-18 23:00S 63°30' W 061°24'1212.3 260 / 14981.6 -1.6-7.0 0.1
2019-Apr-18 22:00S 63°18' W 061°30'7 6.6 230 / 22981.9 -1.5-6.8 0.1
2019-Apr-18 21:00S 63°12' W 061°36'1212.3 240 / 25981.9 -1.4-6.8 0.5
2019-Apr-18 20:00S 63°00' W 061°42'1212.3 240 / 13982.5 -0.8-8.0 0.8
2019-Apr-18 19:00S 62°48' W 061°48'1212.3 220 / 14982.3 0.7-7.2 0.7
2019-Apr-18 18:00S 62°36' W 061°42'8 8.2 220 / 12982.3 -0.1-7.8 0.6
2019-Apr-18 17:00S 62°30' W 061°30'1312.6 210 / 12982.3 -1.2-8.5 0.5
2019-Apr-18 16:00S 62°24' W 061°06'1111.1 200 / 17981.8 -1.9-8.6 0.5
2019-Apr-18 15:00S 62°24' W 060°42'0 0.0 200 / 13981.6 -2.7-9.2 0.4
2019-Apr-18 14:00S 62°24' W 060°42'0 0.0 180 / 9981.0 -2.3-9.2 0.4
2019-Apr-18 13:00S 62°24' W 060°42'0 0.0 200 / 16980.3 -2.5-8.6 0.3
2019-Apr-18 12:00S 62°24' W 060°42'0 0.0 200 / 15979.8 -2.7-6.3 0.3
2019-Apr-18 11:00S 62°24' W 060°42'3 2.8 260 / 7979.7 -3.0-5.1 0.3
2019-Apr-18 10:00S 62°24' W 060°48'3 2.8 310 / 6979.4 -3.2-5.1 0.4
2019-Apr-18 09:00S 62°24' W 060°54'6 5.6 330 / 7979.3 -3.7-5.8 0.6
2019-Apr-18 08:00S 62°24' W 061°06'3 2.8 340 / 7979.1 -3.7-6.7 0.6
2019-Apr-18 07:00S 62°24' W 061°12'6 5.6 360 / 6979.2 -3.6-7.8 0.7
2019-Apr-18 06:00S 62°24' W 061°00'3 2.8 040 / 7978.8 -3.8-8.5 0.5
2019-Apr-18 05:00S 62°24' W 060°54'3 2.8 050 / 7978.6 -2.7-8.4 0.5
2019-Apr-18 04:00S 62°24' W 061°00'6 5.6 050 / 7978.5 -2.7-8.1 0.7
2019-Apr-18 03:00S 62°24' W 061°12'3 2.8 070 / 9978.3 -2.6-7.7 0.6
2019-Apr-18 02:00S 62°24' W 061°18'6 6.0 080 / 12978.0 -2.3-6.8 0.6
2019-Apr-18 01:00S 62°30' W 061°18'0 0.0 080 / 11977.9 -2.8-6.3 0.6
2019-Apr-18 00:00S 62°30' W 061°18'7 6.6 080 / 15977.3 -4.0-6.4 0.6
2019-Apr-17 23:00S 62°24' W 061°12'3 2.8 080 / 20976.6 -4.0-5.7 0.7
2019-Apr-17 22:00S 62°24' W 061°06'7 6.6 090 / 23976.1 -4.1-5.6 0.6
2019-Apr-17 21:00S 62°18' W 061°00'6 5.6 100 / 25975.3 -3.8-5.4 0.6
2019-Apr-17 20:00S 62°18' W 060°48'1313.2 090 / 27973.9 -3.0-4.4 0.8
2019-Apr-17 19:00S 62°06' W 061°00'1212.3 080 / 28972.6 -2.0-3.3 0.9
2019-Apr-17 18:00S 61°54' W 061°06'1212.3 050 / 9972.6 -0.3-2.4 0.7
2019-Apr-17 17:00S 61°42' W 061°12'7 6.6 340 / 6973.0 0.5-2.2 0.5
2019-Apr-17 16:00S 61°36' W 061°18'1212.3 310 / 13973.4 -0.0-2.8 0.6
2019-Apr-17 15:00S 61°24' W 061°24'1212.3 300 / 15973.8 -0.0-4.1 1.0
2019-Apr-17 14:00S 61°12' W 061°30'7 6.7 280 / 16974.5 0.1-5.3 1.1
2019-Apr-17 13:00S 61°06' W 061°36'1212.3 270 / 18974.9 0.1-5.7 1.5
2019-Apr-17 12:00S 60°54' W 061°42'1212.4 250 / 21975.2 0.1-6.0 1.6
2019-Apr-17 11:00S 60°42' W 061°48'7 6.7 250 / 23975.5 -0.0-5.9 1.6
2019-Apr-17 10:00S 60°36' W 061°54'1212.4 260 / 19975.9 -0.4-3.7 1.3
2019-Apr-17 09:00S 60°24' W 062°00'1212.4 250 / 19976.0 -0.7-3.6 1.1
2019-Apr-17 08:00S 60°12' W 062°06'6 6.0 250 / 18976.0 -1.1-3.6 1.2
2019-Apr-17 07:00S 60°06' W 062°06'1212.4 240 / 21976.1 -0.9-2.9 1.7
2019-Apr-17 06:00S 59°54' W 062°12'1212.4 250 / 19976.3 -0.2-3.1 1.9
2019-Apr-17 05:00S 59°42' W 062°18'7 6.7 270 / 18976.7 -0.2-2.6 1.9
2019-Apr-17 04:00S 59°36' W 062°24'1212.4 250 / 18977.1 0.8-3.4 2.0
2019-Apr-17 03:00S 59°24' W 062°30'1212.4 260 / 17977.5 0.8-2.6 1.6
2019-Apr-17 02:00S 59°12' W 062°36'1212.4 260 / 16977.7 0.6-2.2 1.7
2019-Apr-17 01:00S 59°00' W 062°42'7 6.8 260 / 17978.1 1.2-1.3 1.7
2019-Apr-17 00:00S 58°54' W 062°48'1212.4 300 / 16978.5 0.8-1.1 1.4
2019-Apr-16 23:00S 58°42' W 062°54'1212.4 300 / 17978.7 0.8-1.2 1.5
2019-Apr-16 22:00S 58°30' W 063°00'7 6.8 280 / 12978.8 1.2-0.8 2.1
2019-Apr-16 21:00S 58°24' W 063°06'1212.4 290 / 14979.0 1.9-0.3 2.1
2019-Apr-16 20:00S 58°12' W 063°12'1212.4 270 / 19979.1 2.8-1.1 2.7
2019-Apr-16 19:00S 58°00' W 063°18'7 6.8 270 / 24979.4 3.6-1.4 4.7
2019-Apr-16 18:00S 57°54' W 063°24'1212.4 290 / 24980.2 3.7 0.1 4.6
2019-Apr-16 17:00S 57°42' W 063°30'1212.4 300 / 23981.3 4.0 0.4 4.4
2019-Apr-16 16:00S 57°30' W 063°36'1212.4 300 / 20982.2 4.0 0.9 4.6
2019-Apr-16 15:00S 57°18' W 063°42'1212.4 290 / 19983.0 3.7 1.3 4.9
2019-Apr-16 14:00S 57°06' W 063°48'7 6.8 300 / 20983.9 3.0 1.6 5.1
2019-Apr-16 13:00S 57°00' W 063°54'1212.4 310 / 20984.6 2.2 1.1 4.9
2019-Apr-16 12:00S 56°48' W 064°00'1212.4 300 / 23985.0 2.0 0.5 4.0
2019-Apr-16 11:00S 56°36' W 064°06'   310 / 20985.5 3.7 1.3 4.5
Track history (hours):
 
Tides and Currents Weather Stations Pressure Air Temp Water Temp Dewpoint Dewpoint Depression Visibility Wind Speed Wind Dir Waves Ship Positions

Oceanographic research ship Laurence M. Gould (USA)

Detailed information on ship capabilities available from University of Delaware's Ocean Information Center.

Owner: Offshore Service Vessels LLC, Cut Off, LA. More information available from US FCC via Universal Licensing System and Coast Guard Vessel Documentation Center.

Last reported at 2019-Apr-26 11:00 UTC. Time now 2019-Apr-26 12:05 UTC.
Position S 66°12' W 066°30'.

Type: Ship. MMSI: 368138000.

Wind from 050 at 30 knots

Barometer 983.2 mb
Air temperature 0.1 ° C
Dewpoint -0.2 ° C
Water temperature -0.1 ° C

Date/timePositionNaut miles runAvg speedWind from/ knotsBaromVisibWave heightAir tempDewpointWater temp
2019-Apr-26 11:00S 66°12' W 066°30'6 6.5 050 / 30983.2 0.1-0.2-0.1
2019-Apr-26 10:00S 66°06' W 066°24'8 7.7 040 / 32984.7 -0.0-0.3-0.1
2019-Apr-26 09:00S 66°00' W 066°12'5 4.9 040 / 31986.5 -0.1-0.6-0.2
2019-Apr-26 08:00S 66°00' W 066°00'7 7.3 050 / 25988.8 -0.2-0.6-0.9
2019-Apr-26 07:00S 66°00' W 065°42'5 4.9 050 / 25991.2 -0.0-0.5-1.2
2019-Apr-26 06:00S 66°00' W 065°30'6 6.5 050 / 25992.7 -0.0-0.5-1.3
2019-Apr-26 05:00S 65°54' W 065°24'5 4.9 070 / 19994.7 -0.2-0.9-1.2
2019-Apr-26 04:00S 65°54' W 065°12'6 6.5 080 / 17996.2 -0.2-1.0-1.2
2019-Apr-26 03:00S 65°48' W 065°06'8 7.8 090 / 13997.8 -0.4-1.4-1.1
2019-Apr-26 02:00S 65°42' W 064°54'1313.0 080 / 15998.8 -0.4-1.5-1.5
2019-Apr-26 01:00S 65°30' W 064°42'8 7.8 090 / 131000.1 -0.4-1.6-1.1
2019-Apr-26 00:00S 65°24' W 064°30'1414.2 040 / 121001.2 -0.1-1.3-1.2
2019-Apr-25 23:00S 65°12' W 064°12'7 6.5 030 / 151001.9 -0.2-1.0-1.1
2019-Apr-25 22:00S 65°06' W 064°18'1211.8 020 / 151002.0 -0.0-0.6 0.1
2019-Apr-25 21:00S 65°00' W 064°42'7 6.5 030 / 141002.5 -0.0-0.7-0.2
2019-Apr-25 20:00S 64°54' W 064°36'8 7.6 010 / 121003.0 0.5-0.7 0.2
2019-Apr-25 19:00S 64°54' W 064°18'10 9.7 340 / 111002.8 0.8-0.9 0.2
2019-Apr-25 18:00S 64°48' W 064°00'0 0.0 330 / 111002.3 1.4-0.8 0.3
2019-Apr-25 17:00S 64°48' W 064°00'0 0.0 310 / 191000.8 1.2-1.1 0.3
2019-Apr-25 16:00S 64°48' W 064°00'0 0.0 300 / 20999.8 1.2-1.1 0.3
2019-Apr-25 15:00S 64°48' W 064°00'6 6.0 300 / 23999.1 1.4-0.8 0.3
2019-Apr-25 14:00S 64°42' W 064°00'0 0.0 310 / 16998.6 1.7-0.9-0.0
2019-Apr-25 13:00S 64°42' W 064°00'0 0.0 300 / 18997.2 2.7-0.7-0.0
2019-Apr-25 12:00S 64°42' W 064°00'0 0.0 300 / 20995.6 2.4-0.7-0.0
2019-Apr-25 11:00S 64°42' W 064°00'6 6.0 290 / 26993.8 2.6-0.5 0.2
2019-Apr-25 10:00S 64°48' W 064°00'3 2.6 300 / 27992.9 3.3-0.0 0.2
2019-Apr-25 09:00S 64°48' W 063°54'8 7.7 290 / 25992.1 1.0-0.5 0.2
2019-Apr-25 08:00S 64°48' W 064°12'10 9.7 290 / 25991.0 1.1-0.4 0.2
2019-Apr-25 07:00S 64°54' W 064°30'10 9.7 290 / 21990.5 1.2-0.4 0.2
2019-Apr-25 06:00S 65°00' W 064°48'1211.8 300 / 21989.2 1.0-0.5-0.1
2019-Apr-25 05:00S 65°06' W 065°12'10 9.7 300 / 20988.1 0.9-0.4 0.3
2019-Apr-25 04:00S 65°12' W 065°30'10 9.6 290 / 21987.1 1.1-0.4 0.3
2019-Apr-25 03:00S 65°18' W 065°48'1211.7 300 / 21986.4 1.0-0.2 0.2
2019-Apr-25 02:00S 65°24' W 066°12'10 9.6 310 / 18985.8 0.9-0.2-0.0
2019-Apr-25 01:00S 65°30' W 066°30'1212.0 300 / 20984.9 0.6-0.4-0.3
2019-Apr-25 00:00S 65°42' W 066°30'6 6.0 300 / 19984.4 0.5-0.4-0.2
2019-Apr-24 23:00S 65°48' W 066°30'1212.2 290 / 18983.8 0.6-0.2-0.0
2019-Apr-24 22:00S 66°00' W 066°24'1212.0 280 / 19982.8 0.3-0.2-0.1
2019-Apr-24 21:00S 66°12' W 066°24'9 9.4 310 / 14981.3 -0.1-0.6-0.2
2019-Apr-24 20:00S 66°18' W 066°42'9 9.4 320 / 16979.5 -0.4-0.9-0.8
2019-Apr-24 19:00S 66°24' W 067°00'1312.9 340 / 17978.3 -0.3-0.8-1.1
2019-Apr-24 18:00S 66°36' W 067°12'8 7.7 020 / 17977.9 0.3-0.3-1.3
2019-Apr-24 17:00S 66°42' W 067°24'5 4.7 050 / 22977.9 0.4-0.1-1.2
2019-Apr-24 16:00S 66°42' W 067°36'6 6.0 050 / 35977.6 0.3-0.4-1.3
2019-Apr-24 15:00S 66°48' W 067°36'6 6.0 030 / 33978.5 1.5 0.9-1.4
2019-Apr-24 14:00S 66°54' W 067°36'6 6.0 030 / 29979.5 1.0 0.6-1.4
2019-Apr-24 13:00S 66°48' W 067°36'0 0.0 040 / 38979.7 0.5 0.1-1.4
2019-Apr-24 12:00S 66°48' W 067°36'6 6.5 050 / 28981.7 -0.1-0.5-1.3
2019-Apr-24 11:00S 66°42' W 067°30'6 6.5 060 / 27983.4 -0.2-0.5-1.1
2019-Apr-24 10:00S 66°36' W 067°24'5 4.8 050 / 26984.3 -0.3-0.6-1.3
2019-Apr-24 09:00S 66°36' W 067°12'8 7.7 050 / 22985.3 -0.3-0.6-1.2
2019-Apr-24 08:00S 66°30' W 067°24'2 2.4 050 / 17986.1 -0.1-0.5-1.0
2019-Apr-24 07:00S 66°30' W 067°30'2 2.4 030 / 20986.5 -0.1-0.5-1.1
2019-Apr-24 06:00S 66°30' W 067°36'2 2.4 040 / 20987.0 -0.2-0.6-1.3
2019-Apr-24 05:00S 66°30' W 067°42'6 6.5 040 / 20987.5 -0.2-0.6-1.1
2019-Apr-24 04:00S 66°24' W 067°48'6 6.5 040 / 19988.1 -0.2-0.6-1.0
2019-Apr-24 03:00S 66°18' W 067°42'9 9.4 030 / 20988.9 -0.1-0.6-0.9
2019-Apr-24 02:00S 66°12' W 067°24'9 9.4 020 / 22989.7 -0.0-0.5-0.6
2019-Apr-24 01:00S 66°06' W 067°06'9 9.5 030 / 23990.6 0.1-0.3-0.2
2019-Apr-24 00:00S 66°00' W 066°48'7 7.3 030 / 22991.6 0.2-0.3-0.0
2019-Apr-23 23:00S 66°00' W 066°30'7 7.3 040 / 19992.5 -0.3-0.9-0.0
2019-Apr-23 22:00S 66°00' W 066°12'9 9.5 050 / 25993.6 -0.8-1.6-0.6
2019-Apr-23 21:00S 65°54' W 065°54'0 0.0 050 / 26993.9 0.1-1.1-0.7
2019-Apr-23 20:00S 65°54' W 065°54'0 0.0 050 / 25994.1 0.2-1.1-0.7
2019-Apr-23 19:00S 65°54' W 065°54'0 0.0 050 / 24994.3 0.3-0.8-0.7
2019-Apr-23 18:00S 65°54' W 065°54'0 0.0 050 / 21995.0 -0.3-1.2-0.7
2019-Apr-23 17:00S 65°54' W 065°54'6 6.5 040 / 21995.4 0.1-0.8-0.8
2019-Apr-23 16:00S 66°00' W 066°00'8 7.7 040 / 18995.6 -0.1-0.8-0.6
2019-Apr-23 15:00S 65°54' W 066°12'2 2.4 050 / 11996.1 -0.3-0.9-0.3
2019-Apr-23 14:00S 65°54' W 066°06'0 0.0 030 / 5996.3 -0.4-0.9-0.3
2019-Apr-23 13:00S 65°54' W 066°06'0 0.0 040 / 6996.3 -0.6-1.1-0.3
2019-Apr-23 12:00S 65°54' W 066°06'2 2.4 010 / 5996.4 -0.7-1.1-0.3
2019-Apr-23 11:00S 65°54' W 066°12'6 6.5 340 / 7996.2 -0.4-0.8-0.3
2019-Apr-23 10:00S 66°00' W 066°18'2 2.4 350 / 8996.0 -0.0-0.4-0.0
2019-Apr-23 09:00S 66°00' W 066°24'6 6.0 320 / 5995.8 -0.0-0.4-0.1
2019-Apr-23 08:00S 65°54' W 066°24'6 6.5 300 / 6995.4 -0.1-0.5-0.1
2019-Apr-23 07:00S 65°48' W 066°30'6 6.0 330 / 8994.8 -0.0-0.5-0.0
2019-Apr-23 06:00S 65°42' W 066°30'6 6.0 010 / 12994.0 -0.0-0.5-0.2
2019-Apr-23 05:00S 65°36' W 066°30'6 6.0 020 / 15993.7 -0.0-0.6-0.4
2019-Apr-23 04:00S 65°30' W 066°30'1211.6 030 / 18993.7 -0.1-0.7-0.4
2019-Apr-23 03:00S 65°24' W 066°06'10 9.6 030 / 21994.0 -0.0-0.7 0.1
2019-Apr-23 02:00S 65°18' W 065°48'1211.7 030 / 22994.4 -0.0-0.8 0.3
2019-Apr-23 01:00S 65°12' W 065°24'10 9.7 030 / 21995.0 -0.0-1.1 0.3
2019-Apr-23 00:00S 65°06' W 065°06'1211.8 050 / 16995.5 -0.0-2.4 0.4
2019-Apr-22 23:00S 65°00' W 064°42'1211.8 070 / 15996.1 -0.0-4.1 0.2
2019-Apr-22 22:00S 64°54' W 064°18'10 9.7 110 / 14996.1 -0.0-3.3 0.2
2019-Apr-22 21:00S 64°48' W 064°00'6 6.0 130 / 2996.4 0.3-3.2 0.3
2019-Apr-22 20:00S 64°42' W 064°00'0 0.0 130 / 4996.4 -0.1-3.7
2019-Apr-22 19:00S 64°42' W 064°00'0 0.0 150 / 3996.7 -0.1-2.7
2019-Apr-22 18:00S 64°42' W 064°00'0 0.0 130 / 4996.7 -0.6-3.7
2019-Apr-22 17:00S 64°42' W 064°00'0 0.0 150 / 4996.8 -0.7-3.2
2019-Apr-22 16:00S 64°42' W 064°00'0 0.0 170 / 2997.2 0.1-2.8
2019-Apr-22 15:00S 64°42' W 064°00'0 0.0 180 / 2997.5 -0.7-5.4
2019-Apr-22 14:00S 64°42' W 064°00'0 0.0 120 / 5997.9 -1.1-5.5
2019-Apr-22 13:00S 64°42' W 064°00'0 0.0 120 / 3998.6 -0.8-7.4
2019-Apr-22 12:00S 64°42' W 064°00'0 0.0 320 / 2999.2 -1.5-6.4
2019-Apr-22 11:00S 64°42' W 064°00'0 0.0 330 / 4999.4 -1.7-6.5
2019-Apr-22 10:00S 64°42' W 064°00'0 0.0 120 / 5999.7 -2.4-7.6
2019-Apr-22 09:00S 64°42' W 064°00'0 0.0 110 / 41000.2 -3.0-7.5
2019-Apr-22 08:00S 64°42' W 064°00'0 0.0 110 / 41000.5 -3.5-7.7
2019-Apr-22 07:00S 64°42' W 064°00'0 0.0 110 / 61001.0 -4.2-7.6
2019-Apr-22 06:00S 64°42' W 064°00'0 0.0 110 / 31001.4 -4.0-8.0
2019-Apr-22 05:00S 64°42' W 064°00'0 0.0 120 / 31001.7 -4.4-8.3
2019-Apr-22 04:00S 64°42' W 064°00'0 0.0 080 / 21001.8 -5.0-9.4
2019-Apr-22 03:00S 64°42' W 064°00'0 0.0 040 / 31002.1 -5.3-8.9
2019-Apr-22 02:00S 64°42' W 064°00'0 0.0 050 / 51002.1 -5.8-8.3
2019-Apr-22 01:00S 64°42' W 064°00'0 0.0 030 / 51002.0 -5.4-8.3
2019-Apr-22 00:00S 64°42' W 064°00'0 0.0 030 / 41002.2 -4.8-8.2
2019-Apr-21 23:00S 64°42' W 064°00'0 0.0 040 / 31002.2 -4.6-8.2
2019-Apr-21 22:00S 64°42' W 064°00'0 0.0 020 / 31002.0 -4.3-8.3
2019-Apr-21 21:00S 64°42' W 064°00'0 0.0 360 / 11002.1 -3.7-8.1
2019-Apr-21 20:00S 64°42' W 064°00'0 0.0 300 / 31002.1 -3.2-8.3
2019-Apr-21 19:00S 64°42' W 064°00'0 0.0 240 / 51001.9 -3.3-8.0
2019-Apr-21 18:00S 64°42' W 064°00'0 0.0 240 / 21001.6 -3.2-8.3
2019-Apr-21 17:00S 64°42' W 064°00'0 0.0 190 / 21001.2 -3.6-8.5
2019-Apr-21 16:00S 64°42' W 064°00'0 0.0 340 / 21001.0 -3.5-8.3
2019-Apr-21 15:00S 64°42' W 064°00'0 0.0 190 / 31000.6 -3.7-8.5
2019-Apr-21 14:00S 64°42' W 064°00'0 0.0 200 / 41000.2 -3.5-8.5
2019-Apr-21 13:00S 64°42' W 064°00'0 0.0 220 / 5999.9 -3.1-8.3
2019-Apr-21 12:00S 64°42' W 064°00'6 6.0 210 / 6999.2 -3.7-8.1 0.2
2019-Apr-21 11:00S 64°48' W 064°00'0 0.0 210 / 7998.8 -4.1-8.5 0.1
2019-Apr-21 10:00S 64°48' W 064°00'3 2.6 220 / 10998.2 -4.0-8.5 0.1
2019-Apr-21 09:00S 64°48' W 063°54'0 0.0 220 / 8997.8 -4.0-8.7-0.0
2019-Apr-21 08:00S 64°48' W 063°54'0 0.0 210 / 10997.3 -3.9-8.5 0.1
2019-Apr-21 07:00S 64°48' W 063°54'3 2.6 240 / 11996.8 -3.5-8.1-0.0
2019-Apr-21 06:00S 64°48' W 063°48'0 0.0 240 / 10996.3 -3.5-8.4 0.1
2019-Apr-21 05:00S 64°48' W 063°48'3 2.6 240 / 9995.8 -3.5-8.4-0.0
2019-Apr-21 04:00S 64°48' W 063°42'3 2.6 240 / 10995.4 -3.1-8.6-0.0
2019-Apr-21 03:00S 64°48' W 063°36'0 0.0 250 / 14995.0 -2.8-8.2 0.1
2019-Apr-21 02:00S 64°48' W 063°36'3 2.6 270 / 14994.5 -2.9-8.4 0.1
2019-Apr-21 01:00S 64°48' W 063°30'6 6.0 250 / 15994.1 -2.1-7.9 0.2
2019-Apr-21 00:00S 64°42' W 063°30'3 2.6 240 / 15993.7 -2.3-8.0 0.1
2019-Apr-20 23:00S 64°42' W 063°24'3 2.6 250 / 15993.1 -2.3-8.1-0.0
2019-Apr-20 22:00S 64°42' W 063°18'3 2.6 250 / 17992.2 -2.3-7.8-0.0
2019-Apr-20 21:00S 64°42' W 063°12'3 2.6 240 / 21991.0 -2.3-8.0-0.1
2019-Apr-20 20:00S 64°42' W 063°06'7 6.5 220 / 15991.0 -2.1-7.5-0.3
2019-Apr-20 19:00S 64°36' W 063°00'3 2.6 270 / 6990.8 -2.7-6.4-0.2
2019-Apr-20 18:00S 64°36' W 062°54'3 2.6 260 / 6990.2 -2.2-7.0-0.2
2019-Apr-20 17:00S 64°36' W 062°48'0 0.0 210 / 5990.1 -2.6-8.0-0.2
2019-Apr-20 16:00S 64°36' W 062°48'7 6.5 210 / 7989.6 -2.6-7.5-0.5
2019-Apr-20 15:00S 64°30' W 062°42'3 2.6 160 / 5989.4 -2.8-7.5-0.5
2019-Apr-20 14:00S 64°30' W 062°36'3 2.6 040 / 3989.1 -3.3-7.0-0.3
2019-Apr-20 13:00S 64°30' W 062°30'5 5.2 110 / 3988.7 -3.4-6.8-0.7
2019-Apr-20 12:00S 64°30' W 062°18'0 0.0 150 / 5988.2 -3.6-6.6-0.6
2019-Apr-20 11:00S 64°30' W 062°18'0 0.0 140 / 4987.8 -3.8-6.9-0.6
2019-Apr-20 10:00S 64°30' W 062°18'3 2.6 150 / 5987.1 -3.4-6.9-0.9
2019-Apr-20 09:00S 64°30' W 062°12'0 0.0 160 / 5986.4 -2.8-7.0-0.8
2019-Apr-20 08:00S 64°30' W 062°12'3 2.6 120 / 6985.5 -3.1-6.8-0.6
2019-Apr-20 07:00S 64°30' W 062°18'3 2.6 140 / 9984.7 -4.2-7.4-0.6
2019-Apr-20 06:00S 64°30' W 062°12'0 0.0 150 / 10984.0 -4.3-7.6-0.9
2019-Apr-20 05:00S 64°30' W 062°12'7 6.5 140 / 7983.3 -4.4-7.4-1.0
2019-Apr-20 04:00S 64°36' W 062°06'0 0.0 130 / 5982.4 -4.4-7.6-0.9
2019-Apr-20 03:00S 64°36' W 062°06'0 0.0 140 / 4981.6 -4.3-7.1-0.9
2019-Apr-20 02:00S 64°36' W 062°06'3 2.6 130 / 3980.8 -4.3-7.6-1.1
2019-Apr-20 01:00S 64°36' W 062°12'6 6.0 170 / 1980.6 -3.3-6.9-0.9
2019-Apr-20 00:00S 64°30' W 062°12'3 2.6 170 / 3980.2 -3.2-6.0-0.6
2019-Apr-19 23:00S 64°30' W 062°18'3 2.6 150 / 6979.8 -4.0-6.0-0.5
2019-Apr-19 22:00S 64°30' W 062°24'3 2.6 150 / 5979.9 -4.3-6.1-0.6
2019-Apr-19 21:00S 64°30' W 062°18'0 0.0 090 / 6979.9 -3.8-5.9-0.6
2019-Apr-19 20:00S 64°30' W 062°18'0 0.0 070 / 11979.7 -3.6-7.4-0.5
2019-Apr-19 19:00S 64°30' W 062°18'6 6.0 060 / 9980.1 -3.6-8.5-0.5
2019-Apr-19 18:00S 64°24' W 062°18'3 2.6 060 / 7981.1 -3.5-9.2-0.5
2019-Apr-19 17:00S 64°24' W 062°12'0 0.0 100 / 5982.6 -3.1-9.2-0.8
2019-Apr-19 16:00S 64°24' W 062°12'3 2.6 180 / 7983.7 -2.8-9.0-0.8
2019-Apr-19 15:00S 64°24' W 062°06'7 6.5 250 / 8983.8 -2.0-8.3-0.6
2019-Apr-19 14:00S 64°18' W 062°00'7 6.5 250 / 9984.3 -2.1-7.9-0.5
2019-Apr-19 13:00S 64°12' W 061°54'5 5.2 240 / 15984.3 -2.0-7.7-0.5
2019-Apr-19 12:00S 64°12' W 061°42'0 0.0 220 / 16984.8 -2.5-8.1-0.5
2019-Apr-19 11:00S 64°12' W 061°42'8 8.0 210 / 12984.7 -2.5-8.3-0.7
2019-Apr-19 10:00S 64°06' W 061°54'10 9.9 210 / 9984.3 -2.3-8.2-0.7
2019-Apr-19 09:00S 64°00' W 061°36'0 0.0 200 / 9984.1 -2.4-7.9-0.4
2019-Apr-19 08:00S 64°00' W 061°36'0 0.0 160 / 10984.0 -2.5-7.9-0.4
2019-Apr-19 07:00S 64°00' W 061°36'0 0.0 190 / 8983.8 -1.8-8.0-0.4
2019-Apr-19 06:00S 64°00' W 061°36'3 2.6 190 / 5983.2 -2.0-8.0-0.4
2019-Apr-19 05:00S 64°00' W 061°42'0 0.0 220 / 3982.8 -1.7-7.9-0.4
2019-Apr-19 04:00S 64°00' W 061°42'8 8.0 050 / 5982.5 -1.6-7.9-0.5
2019-Apr-19 03:00S 63°54' W 061°30'7 6.6 050 / 7982.0 -2.2-7.8-0.5
2019-Apr-19 02:00S 63°48' W 061°36'3 2.6 330 / 5982.0 -1.6-8.0-0.5
2019-Apr-19 01:00S 63°48' W 061°30'7 6.6 320 / 6982.0 -1.7-8.4-0.4
2019-Apr-19 00:00S 63°42' W 061°24'1212.0 220 / 8981.8 -1.2-7.3-0.0
2019-Apr-18 23:00S 63°30' W 061°24'1212.3 260 / 14981.6 -1.6-7.0 0.1
2019-Apr-18 22:00S 63°18' W 061°30'7 6.6 230 / 22981.9 -1.5-6.8 0.1
2019-Apr-18 21:00S 63°12' W 061°36'1212.3 240 / 25981.9 -1.4-6.8 0.5
2019-Apr-18 20:00S 63°00' W 061°42'1212.3 240 / 13982.5 -0.8-8.0 0.8
2019-Apr-18 19:00S 62°48' W 061°48'1212.3 220 / 14982.3 0.7-7.2 0.7
2019-Apr-18 18:00S 62°36' W 061°42'8 8.2 220 / 12982.3 -0.1-7.8 0.6
2019-Apr-18 17:00S 62°30' W 061°30'1312.6 210 / 12982.3 -1.2-8.5 0.5
2019-Apr-18 16:00S 62°24' W 061°06'1111.1 200 / 17981.8 -1.9-8.6 0.5
2019-Apr-18 15:00S 62°24' W 060°42'0 0.0 200 / 13981.6 -2.7-9.2 0.4
2019-Apr-18 14:00S 62°24' W 060°42'0 0.0 180 / 9981.0 -2.3-9.2 0.4
2019-Apr-18 13:00S 62°24' W 060°42'0 0.0 200 / 16980.3 -2.5-8.6 0.3
2019-Apr-18 12:00S 62°24' W 060°42'0 0.0 200 / 15979.8 -2.7-6.3 0.3
2019-Apr-18 11:00S 62°24' W 060°42'3 2.8 260 / 7979.7 -3.0-5.1 0.3
2019-Apr-18 10:00S 62°24' W 060°48'3 2.8 310 / 6979.4 -3.2-5.1 0.4
2019-Apr-18 09:00S 62°24' W 060°54'6 5.6 330 / 7979.3 -3.7-5.8 0.6
2019-Apr-18 08:00S 62°24' W 061°06'3 2.8 340 / 7979.1 -3.7-6.7 0.6
2019-Apr-18 07:00S 62°24' W 061°12'6 5.6 360 / 6979.2 -3.6-7.8 0.7
2019-Apr-18 06:00S 62°24' W 061°00'3 2.8 040 / 7978.8 -3.8-8.5 0.5
2019-Apr-18 05:00S 62°24' W 060°54'3 2.8 050 / 7978.6 -2.7-8.4 0.5
2019-Apr-18 04:00S 62°24' W 061°00'6 5.6 050 / 7978.5 -2.7-8.1 0.7
2019-Apr-18 03:00S 62°24' W 061°12'3 2.8 070 / 9978.3 -2.6-7.7 0.6
2019-Apr-18 02:00S 62°24' W 061°18'6 6.0 080 / 12978.0 -2.3-6.8 0.6
2019-Apr-18 01:00S 62°30' W 061°18'0 0.0 080 / 11977.9 -2.8-6.3 0.6
2019-Apr-18 00:00S 62°30' W 061°18'7 6.6 080 / 15977.3 -4.0-6.4 0.6
2019-Apr-17 23:00S 62°24' W 061°12'3 2.8 080 / 20976.6 -4.0-5.7 0.7
2019-Apr-17 22:00S 62°24' W 061°06'7 6.6 090 / 23976.1 -4.1-5.6 0.6
2019-Apr-17 21:00S 62°18' W 061°00'6 5.6 100 / 25975.3 -3.8-5.4 0.6
2019-Apr-17 20:00S 62°18' W 060°48'1313.2 090 / 27973.9 -3.0-4.4 0.8
2019-Apr-17 19:00S 62°06' W 061°00'1212.3 080 / 28972.6 -2.0-3.3 0.9
2019-Apr-17 18:00S 61°54' W 061°06'1212.3 050 / 9972.6 -0.3-2.4 0.7
2019-Apr-17 17:00S 61°42' W 061°12'7 6.6 340 / 6973.0 0.5-2.2 0.5
2019-Apr-17 16:00S 61°36' W 061°18'1212.3 310 / 13973.4 -0.0-2.8 0.6
2019-Apr-17 15:00S 61°24' W 061°24'1212.3 300 / 15973.8 -0.0-4.1 1.0
2019-Apr-17 14:00S 61°12' W 061°30'7 6.7 280 / 16974.5 0.1-5.3 1.1
2019-Apr-17 13:00S 61°06' W 061°36'1212.3 270 / 18974.9 0.1-5.7 1.5
2019-Apr-17 12:00S 60°54' W 061°42'1212.4 250 / 21975.2 0.1-6.0 1.6
2019-Apr-17 11:00S 60°42' W 061°48'7 6.7 250 / 23975.5 -0.0-5.9 1.6
2019-Apr-17 10:00S 60°36' W 061°54'1212.4 260 / 19975.9 -0.4-3.7 1.3
2019-Apr-17 09:00S 60°24' W 062°00'1212.4 250 / 19976.0 -0.7-3.6 1.1
2019-Apr-17 08:00S 60°12' W 062°06'6 6.0 250 / 18976.0 -1.1-3.6 1.2
2019-Apr-17 07:00S 60°06' W 062°06'1212.4 240 / 21976.1 -0.9-2.9 1.7
2019-Apr-17 06:00S 59°54' W 062°12'1212.4 250 / 19976.3 -0.2-3.1 1.9
2019-Apr-17 05:00S 59°42' W 062°18'7 6.7 270 / 18976.7 -0.2-2.6 1.9
2019-Apr-17 04:00S 59°36' W 062°24'1212.4 250 / 18977.1 0.8-3.4 2.0
2019-Apr-17 03:00S 59°24' W 062°30'1212.4 260 / 17977.5 0.8-2.6 1.6
2019-Apr-17 02:00S 59°12' W 062°36'1212.4 260 / 16977.7 0.6-2.2 1.7
2019-Apr-17 01:00S 59°00' W 062°42'7 6.8 260 / 17978.1 1.2-1.3 1.7
2019-Apr-17 00:00S 58°54' W 062°48'1212.4 300 / 16978.5 0.8-1.1 1.4
2019-Apr-16 23:00S 58°42' W 062°54'1212.4 300 / 17978.7 0.8-1.2 1.5
2019-Apr-16 22:00S 58°30' W 063°00'7 6.8 280 / 12978.8 1.2-0.8 2.1
2019-Apr-16 21:00S 58°24' W 063°06'1212.4 290 / 14979.0 1.9-0.3 2.1
2019-Apr-16 20:00S 58°12' W 063°12'1212.4 270 / 19979.1 2.8-1.1 2.7
2019-Apr-16 19:00S 58°00' W 063°18'7 6.8 270 / 24979.4 3.6-1.4 4.7
2019-Apr-16 18:00S 57°54' W 063°24'1212.4 290 / 24980.2 3.7 0.1 4.6
2019-Apr-16 17:00S 57°42' W 063°30'1212.4 300 / 23981.3 4.0 0.4 4.4
2019-Apr-16 16:00S 57°30' W 063°36'1212.4 300 / 20982.2 4.0 0.9 4.6
2019-Apr-16 15:00S 57°18' W 063°42'1212.4 290 / 19983.0 3.7 1.3 4.9
2019-Apr-16 14:00S 57°06' W 063°48'7 6.8 300 / 20983.9 3.0 1.6 5.1
2019-Apr-16 13:00S 57°00' W 063°54'1212.4 310 / 20984.6 2.2 1.1 4.9
2019-Apr-16 12:00S 56°48' W 064°00'1212.4 300 / 23985.0 2.0 0.5 4.0
2019-Apr-16 11:00S 56°36' W 064°06'   310 / 20985.5 3.7 1.3 4.5

Dump ship's entire track history